Share

Matsuyama Airport, Japan

Matsuyama (RJOM) Elev 23 ft | 33.83 °N, 132.70 °E | Change Station

Current weather conditions updated 36 minutes ago

Clear
Clear
59 °F
Feels Like 59 °F
N
5
Wind Variable Wind from North
Sunrise 5:34 AM
Sunset 6:43 PM
Moon Waning Gibbous

Tomorrow is forecast to be Much Cooler than today. Showers possible.

Pressure 30.04 in
Visibility -9999.0 miles
Clouds
Dew Point 45 °F
Humidity 59%
Rainfall 0.00 in
Snow Depth Not available.
UV Not available.
Pollen Not available.
Air Quality Not available.
Flu Activity Not available.
METAR RJOM 191200Z 35004KT CAVOK 15/07 Q1017

More Conditions Fewer Conditions

Pressure 30.04 in
Visibility -9999.0 miles
Clouds
Dew Point 45 °F
Humidity 59%
Rainfall 0.00 in
Snow Depth Not available.
UV Not available.
Pollen Not available.
Air Quality Not available.
Flu Activity Not available.
METAR RJOM 191200Z 35004KT CAVOK 15/07 Q1017

More Conditions Fewer Conditions

10-Day Weather Forecast

Almanac

Astronomy

Apr. 19, 2014 Rise Set
Actual Time 5:34 AM JST 6:43 PM JST
Civil Twilight 5:08 AM JST 7:08 PM JST
Nautical Twilight 4:37 AM JST 7:39 PM JST
Astronomical Twilight 4:06 AM JST 8:11 PM JST
Moon 10:43 PM JST 8:23 AM JST
Length of Visible Light 14h 00m
Length of Day
13h 08m
Tomorrow will be 1m 58s longer.
Waning Gibbous, 80% of the Moon is Illuminated
Today
Waning Gibbous
Apr 22
Last Quarter
Apr 29
New
May 6
First Quarter
May 14
Full

Yesterday's Extremes

Country Highs Country Lows

Community

  • Bleeding Hearts
    Bleeding Hearts
  • Sunset Silhouettes
    Sunset Silhouettes
  • FL sunset Perico Isle
    FL sunset Perico Isle
  • Cloudy spring view
    Cloudy spring view
  • Old barn
    Old barn

WunderPhotos

Upload Photos

1,702,703 photos uploaded!

Nearby

Snow Depth

Not available.

Coastal Water Temperatures

Place Temperature
No Stations Reporting

Earthquake Activity

City Distance Mag. Time & Date
No recent earthquake activity has been reported nearby.
Minimum magnitude displayed is 2.5.

Nearby Weather Stations

There are no personal weather stations in this area.

What do you think?

We're not finished. Please let us know what you like, what you don't like, and what you are still missing.